Time;durP1;ratioP1;P1;durP2;ratioP2;P2;SDS_P1;SDS_P2;PMS_P1;PMS_P2;Temp;Humidity;BMP_temperature;BMP_pressure;BME280_temperature;BME280_humidity;BME280_pressure;Samples;Min_cycle;Max_cycle;Signal;HPM_P1;HPM_P2
2023/12/09 00:01:42;;;;;;;56.53;16.55;;;;;;;;;;5087161;28;20039;-71
2023/12/09 00:04:08;;;;;;;67.03;17.20;;;;;;;;;;5091426;28;20450;-71
2023/12/09 00:06:34;;;;;;;43.55;16.63;;;;;;;;;;5091847;28;20079;-71
2023/12/09 00:09:00;;;;;;;61.42;17.50;;;;;;;;;;5091608;28;20458;-71
2023/12/09 00:11:26;;;;;;;61.40;17.30;;;;;;;;;;5091307;28;20044;-71
2023/12/09 00:13:53;;;;;;;50.50;16.05;;;;;;;;;;5091940;28;20377;-71
2023/12/09 00:16:19;;;;;;;50.33;17.10;;;;;;;;;;5092614;28;20040;-71
2023/12/09 00:18:45;;;;;;;52.88;17.17;;;;;;;;;;5091788;28;20380;-71
2023/12/09 00:21:11;;;;;;;47.97;16.17;;;;;;;;;;5091177;28;20131;-71
2023/12/09 00:23:37;;;;;;;51.53;16.20;;;;;;;;;;5091728;28;20094;-71
2023/12/09 00:26:04;;;;;;;53.88;16.63;;;;;;;;;;5091240;28;20055;-71
2023/12/09 00:28:30;;;;;;;67.97;16.88;;;;;;;;;;5091331;28;20044;-71
2023/12/09 00:30:56;;;;;;;50.13;15.77;;;;;;;;;;5085494;28;20434;-71
2023/12/09 00:33:22;;;;;;;61.67;16.42;;;;;;;;;;5087982;28;20044;-71
2023/12/09 00:35:48;;;;;;;53.72;16.25;;;;;;;;;;5074377;28;20054;-71
2023/12/09 00:38:14;;;;;;;57.05;15.70;;;;;;;;;;5091666;28;20035;-71
2023/12/09 00:40:40;;;;;;;61.35;16.75;;;;;;;;;;5074486;28;20488;-71
2023/12/09 00:43:06;;;;;;;53.38;17.27;;;;;;;;;;5091360;28;20059;-71
2023/12/09 00:45:33;;;;;;;53.95;15.38;;;;;;;;;;5091499;28;20083;-71
2023/12/09 00:47:59;;;;;;;52.83;15.80;;;;;;;;;;5073861;28;20048;-71
2023/12/09 00:50:26;;;;;;;51.05;15.73;;;;;;;;;;5091386;28;20076;-71
2023/12/09 00:52:52;;;;;;;52.25;15.30;;;;;;;;;;5091331;28;20048;-77
2023/12/09 00:55:18;;;;;;;66.00;16.10;;;;;;;;;;5091242;28;20032;-77
2023/12/09 00:57:44;;;;;;;52.33;16.05;;;;;;;;;;5091055;28;20047;-77
2023/12/09 01:00:10;;;;;;;51.05;16.13;;;;;;;;;;5091475;28;20322;-78
2023/12/09 01:02:38;;;;;;;48.63;15.38;;;;;;;;;;5090801;28;20051;-77
2023/12/09 01:05:05;;;;;;;54.83;16.85;;;;;;;;;;5094736;28;20047;-76
2023/12/09 01:07:31;;;;;;;49.55;15.82;;;;;;;;;;5078062;28;20047;-77
2023/12/09 01:09:57;;;;;;;50.22;16.08;;;;;;;;;;5094985;28;20048;-77
2023/12/09 01:12:23;;;;;;;56.92;16.02;;;;;;;;;;5077587;28;20044;-71
2023/12/09 01:14:49;;;;;;;49.30;17.35;;;;;;;;;;5094730;28;20538;-71
2023/12/09 01:17:15;;;;;;;48.65;14.93;;;;;;;;;;5094535;28;20142;-71
2023/12/09 01:19:42;;;;;;;65.00;16.90;;;;;;;;;;5094556;28;20035;-71
2023/12/09 01:22:09;;;;;;;57.65;15.73;;;;;;;;;;5077376;28;20050;-71
2023/12/09 01:24:35;;;;;;;46.60;14.00;;;;;;;;;;5094972;28;20120;-71
2023/12/09 01:27:01;;;;;;;46.83;16.63;;;;;;;;;;5094031;28;20040;-71
2023/12/09 01:29:27;;;;;;;42.90;15.02;;;;;;;;;;5094507;28;20077;-71
2023/12/09 01:31:53;;;;;;;52.47;16.20;;;;;;;;;;5077514;28;20048;-71
2023/12/09 01:34:19;;;;;;;46.90;15.60;;;;;;;;;;5094508;28;20464;-71
2023/12/09 01:36:45;;;;;;;41.85;15.02;;;;;;;;;;5094320;28;20051;-71
2023/12/09 01:39:12;;;;;;;49.33;14.45;;;;;;;;;;5077267;28;20040;-71
2023/12/09 01:41:38;;;;;;;54.65;15.85;;;;;;;;;;5094372;28;20043;-71
2023/12/09 01:44:04;;;;;;;48.08;15.07;;;;;;;;;;5093948;28;20036;-71
2023/12/09 01:46:32;;;;;;;38.95;14.30;;;6.90;99.90;;;;;;5093992;28;20129;-71
2023/12/09 01:48:58;;;;;;;49.00;14.82;;;;;;;;;;5077022;28;20056;-71
2023/12/09 01:51:26;;;;;;;45.92;14.52;;;;;;;;;;5094071;28;20484;-71
2023/12/09 01:53:52;;;;;;;42.90;13.98;;;;;;;;;;5094014;28;20036;-71
2023/12/09 01:56:20;;;;;;;44.08;13.98;;;6.80;99.90;;;;;;5077128;28;20040;-71
2023/12/09 01:58:47;;;;;;;50.03;13.63;;;;;;;;;;5093718;28;20039;-71
2023/12/09 02:01:13;;;;;;;36.85;12.98;;;;;;;;;;5093942;28;20047;-71
2023/12/09 02:03:39;;;;;;;46.03;13.23;;;;;;;;;;5093732;28;20510;-71
2023/12/09 02:06:05;;;;;;;43.22;13.20;;;;;;;;;;5093868;28;20043;-71
2023/12/09 02:08:32;;;;;;;42.25;12.65;;;;;;;;;;5076763;28;20047;-71
2023/12/09 02:11:17;;;;;;;35.30;12.85;;;;;;;;;;5093694;28;20510;-71
2023/12/09 02:14:12;;;;;;;49.28;12.07;;;;;;;;;;5093401;28;20089;-71
2023/12/09 02:17:06;;;;;;;38.22;12.60;;;6.60;99.90;;;;;;5080059;28;20090;-71
2023/12/09 02:19:32;;;;;;;44.33;11.93;;;;;;;;;;5092712;28;20048;-71
2023/12/09 02:22:01;;;;;;;41.70;12.15;;;;;;;;;;5093270;28;20040;-71
2023/12/09 02:24:27;;;;;;;52.65;12.45;;;;;;;;;;5076187;28;20040;-71
2023/12/09 02:26:56;;;;;;;39.05;11.98;;;6.70;99.90;;;;;;5076657;28;20052;-71
2023/12/09 02:29:24;;;;;;;36.03;11.43;;;;;;;;;;5093136;28;20123;-71
2023/12/09 02:31:52;;;;;;;47.83;12.38;;;;;;;;;;5110372;28;20120;-71
2023/12/09 02:34:20;;;;;;;48.78;11.80;;;7.10;99.90;;;;;;5075754;28;20032;-71
2023/12/09 02:36:46;;;;;;;44.28;11.43;;;;;;;;;;5094693;28;20051;-70
2023/12/09 02:39:13;;;;;;;42.88;11.60;;;;;;;;;;5094589;28;20043;-71
2023/12/09 02:41:40;;;;;;;37.95;12.10;;;;;;;;;;5076242;28;20488;-71
2023/12/09 02:44:07;;;;;;;37.65;10.93;;;;;;;;;;5075691;28;20119;-71
2023/12/09 02:46:33;;;;;;;39.47;11.02;;;;;;;;;;5092595;28;20082;-71
2023/12/09 02:49:00;;;;;;;48.92;12.10;;;;;;;;;;5092413;28;20051;-71
2023/12/09 02:51:26;;;;;;;41.20;11.77;;;;;;;;;;5075805;28;20091;-71
2023/12/09 02:53:54;;;;;;;32.42;11.48;;;;;;;;;;5092851;28;20051;-71
2023/12/09 02:56:20;;;;;;;42.78;10.57;;;;;;;;;;5092577;28;20051;-71
2023/12/09 02:58:46;;;;;;;36.28;9.82;;;;;;;;;;5075729;28;20032;-71
2023/12/09 03:01:12;;;;;;;38.13;10.38;;;;;;;;;;5092798;28;20044;-71
2023/12/09 03:03:39;;;;;;;39.53;11.68;;;;;;;;;;5092670;28;20081;-71
2023/12/09 03:06:05;;;;;;;40.63;10.65;;;;;;;;;;5092624;28;20119;-71
2023/12/09 03:08:31;;;;;;;35.13;10.27;;;;;;;;;;5093341;28;20051;-71
2023/12/09 03:10:57;;;;;;;35.58;10.93;;;;;;;;;;5102086;28;20124;-71
2023/12/09 03:13:23;;;;;;;33.72;10.82;;;;;;;;;;5072273;28;20037;-71
2023/12/09 03:15:49;;;;;;;35.42;10.60;;;;;;;;;;5088221;28;20039;-71
2023/12/09 03:18:16;;;;;;;38.35;11.63;;;;;;;;;;5093528;28;20124;-71
2023/12/09 03:20:42;;;;;;;38.08;11.60;;;;;;;;;;5093427;28;20083;-71
2023/12/09 03:23:08;;;;;;;38.05;11.35;;;;;;;;;;5092407;28;20489;-71
2023/12/09 03:25:34;;;;;;;40.20;11.85;;;;;;;;;;5092196;28;20085;-71
2023/12/09 03:28:00;;;;;;;38.88;11.48;;;;;;;;;;5082137;28;20040;-71
2023/12/09 03:30:29;;;;;;;39.70;12.25;;;;;;;;;;5092295;28;20090;-72
2023/12/09 03:32:55;;;;;;;38.80;11.45;;;;;;;;;;5092218;28;20086;-72
2023/12/09 03:35:21;;;;;;;39.70;12.25;;;;;;;;;;5091934;28;20097;-71
2023/12/09 03:37:47;;;;;;;37.30;12.52;;;;;;;;;;5091778;28;20036;-71
2023/12/09 03:40:13;;;;;;;36.33;13.13;;;;;;;;;;5092117;28;20511;-71
2023/12/09 03:42:39;;;;;;;44.72;11.73;;;;;;;;;;5091838;28;20072;-71
2023/12/09 03:45:06;;;;;;;35.75;11.68;;;;;;;;;;5092206;28;20040;-71
2023/12/09 03:47:32;;;;;;;40.22;11.43;;;;;;;;;;5091643;28;20048;-71
2023/12/09 03:49:58;;;;;;;35.78;11.82;;;;;;;;;;5091591;28;20059;-71
2023/12/09 03:52:24;;;;;;;36.20;11.43;;;;;;;;;;5091492;28;20040;-71
2023/12/09 03:54:50;;;;;;;32.50;11.52;;;;;;;;;;5091831;28;20036;-71
2023/12/09 03:57:16;;;;;;;42.03;12.55;;;;;;;;;;5091317;28;20170;-71
2023/12/09 03:59:42;;;;;;;38.03;10.80;;;;;;;;;;5091937;28;20044;-71
2023/12/09 04:02:08;;;;;;;43.33;11.65;;;;;;;;;;5108870;28;20098;-71
2023/12/09 04:04:38;;;;;;;38.67;11.82;;;7.20;99.90;;;;;;5074923;28;20047;-71
2023/12/09 04:07:05;;;;;;;47.25;11.93;;;;;;;;;;5091401;28;20051;-71
2023/12/09 04:09:31;;;;;;;39.15;11.85;;;;;;;;;;5091881;28;20159;-72
2023/12/09 04:11:57;;;;;;;36.30;12.90;;;;;;;;;;5074857;28;20036;-77
2023/12/09 04:14:23;;;;;;;32.53;11.50;;;;;;;;;;5091412;28;20128;-77
2023/12/09 04:16:49;;;;;;;29.63;11.60;;;;;;;;;;5091739;28;20042;-76
2023/12/09 04:19:16;;;;;;;35.25;11.63;;;;;;;;;;5091593;28;20036;-76
2023/12/09 04:21:42;;;;;;;39.70;11.73;;;;;;;;;;5091953;28;20063;-77
2023/12/09 04:24:08;;;;;;;37.45;12.00;;;;;;;;;;5074136;28;20075;-78
2023/12/09 04:26:34;;;;;;;47.00;12.23;;;;;;;;;;5091371;28;20032;-77
2023/12/09 04:29:00;;;;;;;39.38;11.95;;;;;;;;;;5090770;28;20494;-77
2023/12/09 04:31:26;;;;;;;49.10;12.23;;;;;;;;;;5090018;28;20392;-77
2023/12/09 04:33:52;;;;;;;36.10;11.90;;;;;;;;;;5091051;28;20067;-77
2023/12/09 04:36:18;;;;;;;34.55;11.50;;;;;;;;;;5091530;28;20090;-77
2023/12/09 04:38:44;;;;;;;38.03;12.20;;;;;;;;;;5093313;28;20473;-77
2023/12/09 04:41:11;;;;;;;37.22;11.57;;;;;;;;;;5095984;28;20046;-78
2023/12/09 04:43:38;;;;;;;25.48;11.40;;;;;;;;;;5078961;28;20043;-77
2023/12/09 04:46:04;;;;;;;34.08;11.88;;;;;;;;;;5095697;28;20055;-78
2023/12/09 04:48:30;;;;;;;46.95;11.98;;;;;;;;;;5095502;28;20080;-77
2023/12/09 04:50:56;;;;;;;35.83;11.98;;;;;;;;;;5098466;28;20058;-77
2023/12/09 04:53:23;;;;;;;40.30;11.75;;;;;;;;;;5098234;28;20040;-77
2023/12/09 04:55:49;;;;;;;35.92;11.18;;;;;;;;;;5081662;28;20047;-77
2023/12/09 04:58:15;;;;;;;29.80;11.00;;;;;;;;;;5078575;28;20067;-77
2023/12/09 05:00:41;;;;;;;33.50;11.68;;;;;;;;;;5095816;28;20364;-77
2023/12/09 05:03:07;;;;;;;45.15;12.52;;;;;;;;;;5095630;28;20373;-77
2023/12/09 05:05:33;;;;;;;37.05;12.27;;;;;;;;;;5096179;28;20081;-77
2023/12/09 05:07:59;;;;;;;36.90;11.27;;;;;;;;;;5095057;28;20051;-77
2023/12/09 05:10:25;;;;;;;34.88;11.68;;;;;;;;;;5094920;28;20040;-77
2023/12/09 05:12:51;;;;;;;34.20;10.93;;;;;;;;;;5095156;28;20540;-77
2023/12/09 05:15:17;;;;;;;39.50;10.63;;;;;;;;;;5096516;28;20380;-77
2023/12/09 05:17:43;;;;;;;31.27;11.20;;;;;;;;;;5095881;28;20371;-77
2023/12/09 05:20:10;;;;;;;31.85;10.68;;;;;;;;;;5094935;28;20101;-77
2023/12/09 05:22:36;;;;;;;39.35;11.30;;;;;;;;;;5094933;28;20094;-77
2023/12/09 05:25:03;;;;;;;43.63;12.38;;;;;;;;;;5095595;28;20048;-78
2023/12/09 05:27:29;;;;;;;33.15;11.20;;;;;;;;;;5095165;28;20467;-77
2023/12/09 05:29:56;;;;;;;32.30;10.15;;;;;;;;;;5094584;28;20453;-77
2023/12/09 05:32:22;;;;;;;31.90;10.77;;;;;;;;;;5095036;28;20098;-77
2023/12/09 05:34:48;;;;;;;30.48;11.55;;;;;;;;;;5094682;28;20039;-77
2023/12/09 05:37:14;;;;;;;28.88;11.07;;;;;;;;;;5094587;28;20047;-78
2023/12/09 05:39:41;;;;;;;36.80;10.68;;;;;;;;;;5094784;28;20438;-71
2023/12/09 05:42:07;;;;;;;36.00;10.32;;;;;;;;;;5094746;28;20044;-71
2023/12/09 05:44:33;;;;;;;30.85;9.80;;;;;;;;;;5094328;28;20089;-71
2023/12/09 05:46:59;;;;;;;27.42;10.73;;;;;;;;;;5094567;28;20123;-71
2023/12/09 05:49:25;;;;;;;30.40;10.77;;;;;;;;;;5093543;28;20048;-72
2023/12/09 05:51:51;;;;;;;32.05;10.30;;;;;;;;;;5093714;28;20484;-71
2023/12/09 05:54:18;;;;;;;30.90;10.82;;;;;;;;;;5094488;28;20038;-72
2023/12/09 05:56:48;;;;;;;30.83;10.23;;;6.60;99.90;;;;;;5094149;28;20069;-71
2023/12/09 05:59:15;;;;;;;36.08;10.45;;;;;;;;;;5077472;28;20051;-71
2023/12/09 06:01:41;;;;;;;27.95;10.93;;;;;;;;;;5094098;28;20403;-72
2023/12/09 06:04:07;;;;;;;30.08;11.43;;;;;;;;;;5094384;28;20081;-78
2023/12/09 06:06:33;;;;;;;25.58;10.30;;;;;;;;;;5093964;28;20044;-77
2023/12/09 06:08:59;;;;;;;26.27;10.38;;;;;;;;;;5093965;28;20044;-77
2023/12/09 06:11:25;;;;;;;29.00;10.93;;;;;;;;;;5093919;28;20062;-78
2023/12/09 06:13:51;;;;;;;32.78;10.63;;;;;;;;;;5095534;28;20036;-78
2023/12/09 06:16:21;;;;;;;29.38;10.13;;;;;;;;;;5094213;28;20036;-77
2023/12/09 06:18:47;;;;;;;33.35;11.07;;;;;;;;;;5094311;28;20071;-78
2023/12/09 06:21:23;;;;;;;26.88;11.13;;;;;;;;;;5093692;28;20492;-71
2023/12/09 06:23:50;;;;;;;32.00;11.25;;;;;;;;;;5093674;28;20392;-71
2023/12/09 06:26:16;;;;;;;31.98;10.52;;;;;;;;;;5077081;28;20051;-72
2023/12/09 06:28:42;;;;;;;32.38;11.77;;;;;;;;;;5093721;28;20047;-71
2023/12/09 06:31:10;;;;;;;40.72;12.30;;;;;;;;;;5093225;28;20404;-71
2023/12/09 06:33:36;;;;;;;30.27;10.75;;;;;;;;;;5093370;28;20115;-71
2023/12/09 06:36:03;;;;;;;31.33;11.55;;;;;;;;;;5093647;28;20032;-71
2023/12/09 06:38:29;;;;;;;33.28;11.15;;;;;;;;;;5093600;28;20093;-72
2023/12/09 06:40:55;;;;;;;23.38;11.77;;;;;;;;;;5076532;28;20036;-71
2023/12/09 06:43:21;;;;;;;28.42;10.93;;;;;;;;;;5076132;28;20047;-72
2023/12/09 06:45:47;;;;;;;33.92;11.23;;;;;;;;;;5093210;28;20044;-72
2023/12/09 06:48:14;;;;;;;27.90;11.55;;;;;;;;;;5092758;28;20056;-74
2023/12/09 06:50:40;;;;;;;34.63;12.07;;;;;;;;;;5094413;28;20541;-71
2023/12/09 06:53:06;;;;;;;34.83;10.93;;;;;;;;;;5093267;28;20468;-71
2023/12/09 06:55:32;;;;;;;38.05;11.23;;;;;;;;;;5076120;28;20036;-71
2023/12/09 06:57:58;;;;;;;30.48;11.77;;;;;;;;;;5093168;28;20039;-72
2023/12/09 07:00:25;;;;;;;28.38;10.65;;;;;;;;;;5092795;28;20051;-71
2023/12/09 07:02:51;;;;;;;32.10;10.52;;;;;;;;;;5092670;28;20162;-71
2023/12/09 07:05:17;;;;;;;35.65;11.75;;;;;;;;;;5092691;28;20047;-71
2023/12/09 07:07:43;;;;;;;32.70;11.38;;;;;;;;;;5092053;28;20119;-71
2023/12/09 07:10:09;;;;;;;38.30;11.50;;;;;;;;;;5075728;28;20051;-71
2023/12/09 07:12:35;;;;;;;26.00;10.70;;;;;;;;;;5086334;28;20157;-72
2023/12/09 07:15:02;;;;;;;28.15;11.25;;;;;;;;;;5092572;28;20105;-72
2023/12/09 07:17:28;;;;;;;32.55;10.52;;;;;;;;;;5090218;28;20066;-72
2023/12/09 07:19:55;;;;;;;32.38;10.70;;;;;;;;;;5086647;28;20476;-71
2023/12/09 07:22:22;;;;;;;36.55;10.98;;;6.40;99.90;;;;;;5081231;28;20052;-72
2023/12/09 07:24:48;;;;;;;33.28;10.48;;;;;;;;;;5088693;28;20043;-71
2023/12/09 07:27:14;;;;;;;28.60;10.48;;;;;;;;;;5092093;28;20040;-72
2023/12/09 07:29:40;;;;;;;30.88;10.18;;;;;;;;;;5075627;28;20048;-72
2023/12/09 07:32:06;;;;;;;25.52;10.40;;;;;;;;;;5092152;28;20118;-72
2023/12/09 07:34:33;;;;;;;29.25;9.65;;;;;;;;;;5092187;28;20067;-70
2023/12/09 07:36:59;;;;;;;32.90;10.70;;;;;;;;;;5092130;28;20074;-72
2023/12/09 07:39:26;;;;;;;31.33;10.50;;;;;;;;;;5092170;28;20047;-72
2023/12/09 07:41:52;;;;;;;30.20;10.52;;;;;;;;;;5091948;28;20046;-72
2023/12/09 07:44:20;;;;;;;28.25;10.00;;;;;;;;;;5092285;28;20048;-72
2023/12/09 07:46:46;;;;;;;39.38;10.00;;;;;;;;;;5091972;28;20044;-72
2023/12/09 07:49:13;;;;;;;32.88;10.80;;;;;;;;;;5091822;28;20044;-72
2023/12/09 07:51:40;;;;;;;27.42;9.50;;;;;;;;;;5093208;28;20079;-72
2023/12/09 07:54:06;;;;;;;38.50;10.05;;;;;;;;;;5091975;28;20126;-72
2023/12/09 07:56:33;;;;;;;36.03;10.05;;;;;;;;;;5092121;28;20048;-72
2023/12/09 07:58:59;;;;;;;30.88;9.95;;;;;;;;;;5092237;28;20194;-72
2023/12/09 08:01:26;;;;;;;26.27;9.57;;;6.70;99.90;;;;;;5075025;28;20040;-72
2023/12/09 08:03:52;;;;;;;32.90;9.75;;;;;;;;;;5075087;28;20055;-72
2023/12/09 08:06:18;;;;;;;31.55;9.88;;;;;;;;;;5075020;28;20407;-72
2023/12/09 08:08:44;;;;;;;32.45;9.52;;;;;;;;;;5075300;28;20043;-72
2023/12/09 08:11:10;;;;;;;30.85;9.75;;;;;;;;;;5091734;28;20080;-72
2023/12/09 08:13:36;;;;;;;32.17;9.55;;;;;;;;;;5074326;28;20495;-72
2023/12/09 08:16:02;;;;;;;37.00;8.93;;;;;;;;;;5074932;28;20047;-72
2023/12/09 08:18:28;;;;;;;26.35;9.07;;;;;;;;;;5091590;28;20032;-72
2023/12/09 08:20:55;;;;;;;36.70;10.57;;;;;;;;;;5091661;28;20541;-72
2023/12/09 08:23:21;;;;;;;36.08;10.05;;;;;;;;;;5091351;28;20361;-79
2023/12/09 08:25:48;;;;;;;34.67;9.38;;;;;;;;;;5073620;28;20035;-75
2023/12/09 08:28:14;;;;;;;40.85;10.52;;;;;;;;;;5090399;28;20056;-78
2023/12/09 08:30:40;;;;;;;30.15;8.85;;;;;;;;;;5089288;28;20048;-78
2023/12/09 08:33:06;;;;;;;29.85;8.70;;;;;;;;;;5090629;28;20085;-78
2023/12/09 08:35:32;;;;;;;26.85;8.25;;;;;;;;;;5091405;28;20051;-77
2023/12/09 08:37:58;;;;;;;31.08;8.70;;;;;;;;;;5091456;28;20073;-77
2023/12/09 08:40:24;;;;;;;34.10;8.95;;;;;;;;;;5092591;28;20032;-77
2023/12/09 08:42:50;;;;;;;30.02;8.77;;;;;;;;;;5091483;28;20040;-78
2023/12/09 08:45:17;;;;;;;31.48;7.97;;;;;;;;;;5091410;28;20476;-77
2023/12/09 08:47:43;;;;;;;31.65;9.30;;;;;;;;;;5074689;28;20081;-77
2023/12/09 08:50:10;;;;;;;26.08;7.82;;;;;;;;;;5091287;28;20055;-78
2023/12/09 08:52:37;;;;;;;24.42;8.02;;;;;;;;;;5092713;28;20036;-77
2023/12/09 08:55:03;;;;;;;31.52;7.78;;;;;;;;;;5092367;28;20111;-78
2023/12/09 08:57:29;;;;;;;28.27;7.70;;;;;;;;;;5091847;28;20044;-78
2023/12/09 08:59:55;;;;;;;27.85;7.40;;;;;;;;;;5093587;28;20036;-77
2023/12/09 09:02:22;;;;;;;27.85;7.95;;;;;;;;;;5094962;28;20451;-77
2023/12/09 09:04:48;;;;;;;27.90;6.93;;;;;;;;;;5094910;28;20066;-77
2023/12/09 09:07:14;;;;;;;28.80;7.07;;;;;;;;;;5093213;28;20230;-78
2023/12/09 09:09:40;;;;;;;28.70;6.90;;;;;;;;;;5091619;28;20036;-72
2023/12/09 09:12:07;;;;;;;29.55;7.53;;;;;;;;;;5074549;28;20043;-72
2023/12/09 09:14:36;;;;;;;28.17;7.50;;;;;;;;;;5090990;28;20050;-71
2023/12/09 09:17:03;;;;;;;20.85;6.65;;;;;;;;;;5091816;28;20094;-72
2023/12/09 09:19:29;;;;;;;34.10;8.75;;;;;;;;;;5074623;28;20171;-73
2023/12/09 09:21:55;;;;;;;23.77;6.85;;;;;;;;;;5091194;28;20047;-73
2023/12/09 09:24:21;;;;;;;23.23;6.43;;;;;;;;;;5091683;28;20065;-73
2023/12/09 09:26:47;;;;;;;28.30;6.90;;;;;;;;;;5095189;28;20040;-73
2023/12/09 09:29:13;;;;;;;24.23;6.68;;;;;;;;;;5077879;28;20488;-73
2023/12/09 09:31:40;;;;;;;25.30;6.97;;;;;;;;;;5095884;28;20173;-73
2023/12/09 09:34:06;;;;;;;35.95;7.35;;;;;;;;;;5094395;28;20097;-73
2023/12/09 09:36:32;;;;;;;17.42;5.65;;;;;;;;;;5093847;28;20040;-73
2023/12/09 09:38:58;;;;;;;18.15;6.50;;;;;;;;;;5094324;28;20487;-73
2023/12/09 09:41:46;;;;;;;22.02;6.25;;;;;;;;;;5094579;28;20058;-73
2023/12/09 09:44:18;;;;;;;26.30;6.65;;;7.20;99.90;;;;;;5095275;28;20075;-72
2023/12/09 09:46:46;;;;;;;29.88;6.80;;;;;;;;;;5078078;28;20097;-73
2023/12/09 09:49:13;;;;;;;19.02;6.28;;;;;;;;;;5095399;28;20083;-73
2023/12/09 09:51:43;;;;;;;22.00;6.13;;;;;;;;;;5077424;28;20100;-71
2023/12/09 09:54:23;;;;;;;24.77;5.97;;;;;;;;;;5094310;28;20044;-69
2023/12/09 09:56:53;;;;;;;24.65;5.85;;;;;;;;;;5094045;28;20438;-71
2023/12/09 09:59:20;;;;;;;24.65;7.00;;;;;;;;;;5077235;28;20039;-72
2023/12/09 10:01:46;;;;;;;21.55;5.63;;;;;;;;;;5094260;28;20071;-70
2023/12/09 10:04:12;;;;;;;23.02;5.70;;;;;;;;;;5093863;28;20048;-72
2023/12/09 10:06:41;;;;;;;22.80;6.28;;;7.20;99.90;;;;;;5094287;28;20079;-72
2023/12/09 10:09:07;;;;;;;20.60;5.78;;;;;;;;;;5093306;28;20051;-72
2023/12/09 10:11:33;;;;;;;23.35;5.63;;;;;;;;;;5094449;28;20059;-71
2023/12/09 10:13:59;;;;;;;19.77;5.97;;;;;;;;;;5090517;28;20118;-72
2023/12/09 10:16:25;;;;;;;21.77;5.70;;;;;;;;;;5093772;28;20047;-72
2023/12/09 10:18:52;;;;;;;21.35;5.80;;;;;;;;;;5093233;28;20040;-71
2023/12/09 10:21:18;;;;;;;19.90;5.80;;;;;;;;;;5094426;28;20086;-72
2023/12/09 10:23:45;;;;;;;17.42;5.28;;;;;;;;;;5093602;28;20511;-72
2023/12/09 10:26:11;;;;;;;18.88;5.05;;;;;;;;;;5075714;28;20032;-72
2023/12/09 10:28:37;;;;;;;19.50;5.45;;;;;;;;;;5089909;28;20036;-71
2023/12/09 10:31:03;;;;;;;15.05;5.10;;;;;;;;;;5092365;28;20401;-72
2023/12/09 10:33:30;;;;;;;21.65;4.80;;;;;;;;;;5091828;28;20031;-72
2023/12/09 10:35:57;;;;;;;17.30;4.68;;;;;;;;;;5091303;28;20036;-72
2023/12/09 10:38:23;;;;;;;22.45;5.10;;;;;;;;;;5092040;28;20496;-71
2023/12/09 10:40:49;;;;;;;14.38;5.18;;;;;;;;;;5091512;28;20523;-72
2023/12/09 10:43:15;;;;;;;17.85;5.40;;;;;;;;;;5092254;28;20078;-71
2023/12/09 10:45:42;;;;;;;20.30;5.35;;;;;;;;;;5092283;28;20132;-71
2023/12/09 10:48:08;;;;;;;22.83;4.82;;;;;;;;;;5093080;28;20070;-71
2023/12/09 10:50:37;;;;;;;17.63;4.80;;;;;;;;;;5092224;28;20044;-71
2023/12/09 10:53:04;;;;;;;18.10;5.00;;;;;;;;;;5092488;28;20059;-71
2023/12/09 10:55:30;;;;;;;17.70;4.95;;;;;;;;;;5076162;28;20097;-71
2023/12/09 10:57:56;;;;;;;15.88;4.30;;;;;;;;;;5093716;28;20036;-71
2023/12/09 11:00:22;;;;;;;14.57;4.95;;;;;;;;;;5091727;28;20082;-71
2023/12/09 11:02:48;;;;;;;15.70;4.60;;;;;;;;;;5089381;28;20047;-71
2023/12/09 11:05:15;;;;;;;13.00;4.20;;;;;;;;;;5091205;28;20039;-71
2023/12/09 11:07:41;;;;;;;18.38;4.10;;;;;;;;;;5091031;28;20135;-71
2023/12/09 11:10:11;;;;;;;12.63;3.88;;;;;;;;;;5090327;28;20044;-71
2023/12/09 11:12:37;;;;;;;14.27;4.18;;;;;;;;;;5087168;28;20035;-71
2023/12/09 11:15:17;;;;;;;17.60;4.53;;;;;;;;;;5075295;28;20409;-71
2023/12/09 11:17:49;;;;;;;15.63;4.72;;;;;;;;;;5090974;28;20043;-71
2023/12/09 11:20:18;;;;;;;15.13;4.15;;;;;;;;;;5091805;28;20048;-71
2023/12/09 11:22:45;;;;;;;14.65;4.90;;;;;;;;;;5091274;28;20051;-71
2023/12/09 11:25:12;;;;;;;16.80;4.82;;;;;;;;;;5073465;28;20052;-71
2023/12/09 11:27:38;;;;;;;20.50;4.50;;;;;;;;;;5093552;28;20075;-77
2023/12/09 11:30:05;;;;;;;17.25;4.38;;;;;;;;;;5075476;28;20044;-77
2023/12/09 11:32:31;;;;;;;11.80;3.90;;;;;;;;;;5091737;28;20039;-77
2023/12/09 11:35:00;;;;;;;19.27;4.15;;;;;;;;;;5091800;28;20119;-77
2023/12/09 11:37:28;;;;;;;13.82;3.97;;;;;;;;;;5091889;28;20042;-76
2023/12/09 11:39:58;;;;;;;13.07;4.13;;;;;;;;;;5092281;28;20058;-77
2023/12/09 11:42:25;;;;;;;12.07;3.47;;;;;;;;;;5091435;28;20072;-77
2023/12/09 11:44:51;;;;;;;11.20;3.40;;;;;;;;;;5091849;28;20048;-77
2023/12/09 11:47:19;;;;;;;9.38;3.72;;;;;;;;;;5091392;28;20488;-77
2023/12/09 11:49:47;;;;;;;11.18;3.30;;;;;;;;;;5092409;28;20593;-77
2023/12/09 11:52:13;;;;;;;13.18;3.45;;;;;;;;;;5091974;28;20052;-77
2023/12/09 11:54:39;;;;;;;12.77;3.50;;;;;;;;;;5091271;28;20047;-77
2023/12/09 11:57:05;;;;;;;12.52;3.38;;;;;;;;;;5091380;28;20166;-76
2023/12/09 11:59:31;;;;;;;17.48;4.80;;;;;;;;;;5091280;28;20488;-77
2023/12/09 12:01:59;;;;;;;18.02;4.03;;;;;;;;;;5092131;28;20051;-78
2023/12/09 12:04:32;;;;;;;11.45;3.92;;;;;;;;;;5083711;28;20047;-77
2023/12/09 12:06:59;;;;;;;14.85;3.55;;;;;;;;;;5091646;28;20381;-77
2023/12/09 12:09:25;;;;;;;18.10;3.22;;;;;;;;;;5091006;28;20046;-77
2023/12/09 12:11:51;;;;;;;13.95;3.83;;;;;;;;;;5091208;28;20509;-77
2023/12/09 12:14:17;;;;;;;14.57;3.17;;;;;;;;;;5092059;28;20368;-78
2023/12/09 12:16:43;;;;;;;13.05;2.90;;;;;;;;;;5090871;28;20101;-77
2023/12/09 12:19:09;;;;;;;13.85;3.38;;;;;;;;;;5089470;28;20132;-77
2023/12/09 12:21:35;;;;;;;13.05;3.35;;;;;;;;;;5074200;28;20431;-77
2023/12/09 12:24:05;;;;;;;12.75;3.28;;;;;;;;;;5090080;28;20075;-77
2023/12/09 12:26:31;;;;;;;9.93;3.03;;;;;;;;;;5088267;28;20044;-77
2023/12/09 12:28:57;;;;;;;11.57;2.83;;;;;;;;;;5090533;28;20036;-77
2023/12/09 12:31:23;;;;;;;12.35;2.80;;;;;;;;;;5090583;28;20043;-77
2023/12/09 12:33:49;;;;;;;13.85;3.38;;;;;;;;;;5090634;28;20043;-77
2023/12/09 12:36:16;;;;;;;9.60;3.00;;;;;;;;;;5090871;28;20061;-77
2023/12/09 12:38:42;;;;;;;7.97;2.72;;;;;;;;;;5090612;28;20040;-77
2023/12/09 12:41:09;;;;;;;8.23;2.60;;;;;;;;;;5090661;28;20044;-77
2023/12/09 12:43:35;;;;;;;12.93;3.00;;;;;;;;;;5073701;28;20064;-77
2023/12/09 12:46:03;;;;;;;9.48;2.85;;;;;;;;;;5090536;28;20036;-77
2023/12/09 12:48:30;;;;;;;11.40;2.40;;;;;;;;;;5073907;28;20044;-77
2023/12/09 12:50:56;;;;;;;9.60;3.33;;;;;;;;;;5090434;28;20489;-77
2023/12/09 12:53:24;;;;;;;13.07;3.00;;;;;;;;;;5089755;28;20036;-77
2023/12/09 12:55:52;;;;;;;7.10;2.55;;;;;;;;;;5089855;28;20047;-77
2023/12/09 12:58:18;;;;;;;12.25;2.90;;;;;;;;;;5073642;28;20028;-77
2023/12/09 13:00:48;;;;;;;11.15;2.90;;;;;;;;;;5093368;28;20404;-77
2023/12/09 13:03:14;;;;;;;11.82;2.92;;;;;;;;;;5094238;28;20044;-77
2023/12/09 13:05:40;;;;;;;10.25;3.03;;;;;;;;;;5077359;28;20039;-77
2023/12/09 13:08:06;;;;;;;12.98;3.17;;;;;;;;;;5077319;28;20050;-77
2023/12/09 13:10:33;;;;;;;11.48;3.03;;;;;;;;;;5077213;28;20381;-77
2023/12/09 13:12:59;;;;;;;11.00;3.17;;;;;;;;;;5093908;28;20040;-77
2023/12/09 13:15:25;;;;;;;10.02;3.30;;;;;;;;;;5094064;28;20071;-77
2023/12/09 13:17:51;;;;;;;8.25;3.03;;;;;;;;;;5093798;28;20062;-77
2023/12/09 13:20:18;;;;;;;6.22;2.65;;;;;;;;;;5094021;28;20582;-77
2023/12/09 13:22:45;;;;;;;7.80;2.58;;;;;;;;;;5094626;28;20040;-77
2023/12/09 13:25:13;;;;;;;9.38;2.72;;;;;;;;;;5094878;28;20051;-77
2023/12/09 13:27:39;;;;;;;8.38;2.28;;;;;;;;;;5094684;28;20044;-77
2023/12/09 13:30:06;;;;;;;6.38;2.65;;;;;;;;;;5077357;28;20043;-77
2023/12/09 13:32:33;;;;;;;13.93;3.00;;;;;;;;;;5094519;28;20055;-77
2023/12/09 13:34:59;;;;;;;10.55;3.15;;;;;;;;;;5094496;28;20043;-77
2023/12/09 13:37:25;;;;;;;12.38;3.08;;;;;;;;;;5087192;28;20054;-76
2023/12/09 13:39:51;;;;;;;12.95;2.85;;;;;;;;;;5096234;28;20081;-77
2023/12/09 13:42:18;;;;;;;10.98;2.90;;;;;;;;;;5094730;28;20040;-77
2023/12/09 13:44:44;;;;;;;8.68;2.28;;;;;;;;;;5094272;28;20032;-76
2023/12/09 13:47:10;;;;;;;16.00;3.60;;;;;;;;;;5077142;28;20036;-76
2023/12/09 13:49:36;;;;;;;10.52;3.20;;;;;;;;;;5087722;28;20066;-76
2023/12/09 13:52:02;;;;;;;10.30;2.88;;;;;;;;;;5109757;28;20067;-76
2023/12/09 13:54:28;;;;;;;13.43;2.58;;;;;;;;;;5094175;28;20043;-76
2023/12/09 13:56:54;;;;;;;10.55;2.83;;;;;;;;;;5094018;28;20507;-76
2023/12/09 13:59:20;;;;;;;8.48;2.70;;;;;;;;;;5076790;28;20093;-76
2023/12/09 14:01:48;;;;;;;8.45;2.63;;;;;;;;;;5094149;28;20126;-76
2023/12/09 14:04:14;;;;;;;9.82;3.40;;;;;;;;;;5094071;28;20396;-76
2023/12/09 14:06:40;;;;;;;4.82;2.72;;;;;;;;;;5093338;28;20043;-75
2023/12/09 14:09:09;;;;;;;6.53;2.65;;;;;;;;;;5094013;28;20507;-75
2023/12/09 14:11:35;;;;;;;7.97;2.75;;;;;;;;;;5059557;28;20040;-76
2023/12/09 14:14:01;;;;;;;8.80;2.70;;;;;;;;;;5095638;28;20040;-77
2023/12/09 14:16:28;;;;;;;6.63;2.90;;;;;;;;;;5093487;28;20391;-76
2023/12/09 14:18:54;;;;;;;12.57;3.05;;;;;;;;;;5093303;28;20032;-76